createdAt,value
2022-09-03T00:00:14.642Z,72.70
2022-09-03T00:02:46.568Z,72.50
2022-09-03T00:05:24.094Z,72.80
2022-09-03T00:08:02.711Z,73.30
2022-09-03T00:10:36.365Z,73.40
2022-09-03T00:13:08.844Z,73.40
2022-09-03T00:15:40.981Z,74.70
2022-09-03T00:18:15.071Z,74.20
2022-09-03T00:20:49.241Z,74.30
2022-09-03T00:23:30.340Z,74.40
2022-09-03T00:26:17.443Z,74.60
2022-09-03T00:28:52.549Z,75.60
2022-09-03T00:31:27.581Z,75.00
2022-09-03T00:34:00.709Z,75.40
2022-09-03T00:36:36.566Z,75.90
2022-09-03T00:39:05.536Z,76.10
2022-09-03T00:41:41.564Z,75.90
2022-09-03T00:44:33.731Z,75.80
2022-09-03T00:47:11.093Z,76.30
2022-09-03T00:49:51.362Z,76.60
2022-09-03T00:52:33.014Z,76.50
2022-09-03T00:55:08.264Z,76.50
2022-09-03T00:57:47.925Z,76.60
2022-09-03T01:00:20.671Z,76.80
2022-09-03T01:03:02.173Z,76.90
2022-09-03T01:05:43.765Z,77.10
2022-09-03T01:08:37.625Z,77.10
2022-09-03T01:11:20.120Z,77.60
2022-09-03T01:13:55.920Z,77.60
2022-09-03T01:16:32.047Z,77.90
2022-09-03T01:19:13.178Z,77.40
2022-09-03T01:22:05.273Z,77.20
2022-09-03T01:24:50.145Z,77.40
2022-09-03T01:27:31.534Z,77.40
2022-09-03T01:30:06.978Z,77.50
2022-09-03T01:32:44.660Z,77.50
2022-09-03T01:35:22.933Z,77.30
2022-09-03T01:38:04.802Z,77.50
2022-09-03T01:40:43.609Z,77.70
2022-09-03T01:43:25.197Z,77.80
2022-09-03T01:46:00.480Z,77.70
2022-09-03T01:48:44.603Z,78.00
2022-09-03T01:51:22.292Z,78.00
2022-09-03T01:54:20.921Z,78.50
2022-09-03T01:57:35.293Z,78.80
2022-09-03T02:00:10.665Z,78.90
2022-09-03T02:02:42.207Z,79.30
2022-09-03T02:05:15.007Z,79.50
2022-09-03T02:07:48.212Z,79.80
2022-09-03T02:10:27.963Z,79.80
2022-09-03T02:13:00.662Z,80.40
2022-09-03T02:15:31.235Z,80.20
2022-09-03T02:18:07.288Z,80.30
2022-09-03T02:20:39.495Z,80.60
2022-09-03T02:23:08.691Z,80.70
2022-09-03T02:25:40.005Z,81.10
2022-09-03T02:28:17.012Z,81.60
2022-09-03T02:30:48.100Z,81.50
2022-09-03T02:33:18.915Z,81.40
2022-09-03T02:35:48.894Z,82.00
2022-09-03T02:38:25.879Z,82.40
2022-09-03T02:40:54.977Z,82.90
2022-09-03T02:43:28.766Z,83.40
2022-09-03T02:46:02.818Z,83.70
2022-09-03T02:48:33.207Z,84.00
2022-09-03T02:51:01.315Z,84.20
2022-09-03T02:53:29.476Z,84.60
2022-09-03T02:56:00.679Z,84.80
2022-09-03T02:58:29.499Z,84.60
2022-09-03T03:00:58.836Z,85.10
2022-09-03T03:03:27.116Z,85.50
2022-09-03T03:05:59.041Z,85.50
2022-09-03T03:08:30.421Z,85.70
2022-09-03T03:11:00.890Z,86.00
2022-09-03T03:13:30.631Z,85.80
2022-09-03T03:16:02.429Z,86.00
2022-09-03T03:18:31.685Z,85.70
2022-09-03T03:21:05.656Z,85.90
2022-09-03T03:23:34.735Z,85.90
2022-09-03T03:26:04.296Z,86.00
2022-09-03T03:28:34.323Z,86.30
2022-09-03T03:31:07.755Z,86.70
2022-09-03T03:33:37.321Z,87.00
2022-09-03T03:36:11.278Z,86.90
2022-09-03T03:38:40.763Z,87.10
2022-09-03T03:41:10.245Z,87.10
2022-09-03T03:43:38.368Z,87.60
2022-09-03T03:46:07.622Z,86.70
2022-09-03T03:48:36.355Z,86.80
2022-09-03T03:51:07.524Z,86.90
2022-09-03T03:53:38.555Z,87.10
2022-09-03T03:56:09.782Z,87.00
2022-09-03T03:58:44.413Z,87.30
2022-09-03T04:01:15.481Z,87.60
2022-09-03T04:03:45.259Z,87.70
2022-09-03T04:06:15.816Z,87.60
2022-09-03T04:08:46.813Z,87.80
2022-09-03T04:11:18.546Z,87.70
2022-09-03T04:13:49.349Z,87.80
2022-09-03T04:16:20.080Z,88.00
2022-09-03T04:18:49.564Z,88.20
2022-09-03T04:21:20.963Z,88.40
2022-09-03T04:23:51.978Z,88.20
2022-09-03T04:26:23.055Z,88.20
2022-09-03T04:28:51.416Z,88.60
2022-09-03T04:31:21.251Z,88.80
2022-09-03T04:33:55.544Z,88.80
2022-09-03T04:36:25.342Z,89.00
2022-09-03T04:38:56.515Z,89.40
2022-09-03T04:41:27.750Z,89.80
2022-09-03T04:43:57.742Z,90.00
2022-09-03T04:46:33.969Z,90.20
2022-09-03T04:49:03.450Z,90.10
2022-09-03T04:51:33.038Z,90.20
2022-09-03T04:54:06.499Z,90.30
2022-09-03T04:56:36.775Z,90.30
2022-09-03T04:59:07.446Z,90.40
2022-09-03T05:01:38.432Z,90.40
2022-09-03T05:04:09.910Z,90.40
2022-09-03T05:06:38.484Z,90.40
2022-09-03T05:09:09.094Z,90.20
2022-09-03T05:11:37.942Z,90.20
2022-09-03T05:14:11.962Z,90.30
2022-09-03T05:16:41.208Z,90.40
2022-09-03T05:19:12.694Z,90.40
2022-09-03T05:21:46.781Z,90.40
2022-09-03T05:24:18.709Z,90.30
2022-09-03T05:26:49.078Z,90.40
2022-09-03T05:29:27.262Z,90.50
2022-09-03T05:32:00.672Z,90.50
2022-09-03T05:34:30.041Z,90.60
2022-09-03T05:36:59.299Z,90.50
2022-09-03T05:39:28.981Z,90.40
2022-09-03T05:41:57.243Z,90.50
2022-09-03T05:44:25.590Z,90.60
2022-09-03T05:46:54.879Z,90.50
2022-09-03T05:49:22.958Z,90.60
2022-09-03T05:51:51.084Z,90.70
2022-09-03T05:54:19.204Z,90.60
2022-09-03T05:56:56.668Z,90.60
2022-09-03T05:59:24.748Z,90.50
2022-09-03T06:01:58.096Z,90.40
2022-09-03T06:04:29.194Z,90.30
2022-09-03T06:06:57.736Z,90.20
2022-09-03T06:09:27.129Z,90.10
2022-09-03T06:11:57.282Z,90.00
2022-09-03T06:14:26.837Z,90.00
2022-09-03T06:16:55.884Z,90.20
2022-09-03T06:19:24.139Z,90.20
2022-09-03T06:21:52.127Z,90.30
2022-09-03T06:24:26.342Z,90.20
2022-09-03T06:26:59.427Z,90.10
2022-09-03T06:29:28.603Z,90.10
2022-09-03T06:31:57.284Z,88.80
2022-09-03T06:34:27.312Z,87.90
2022-09-03T06:36:58.063Z,87.60
2022-09-03T06:39:28.568Z,87.80
2022-09-03T06:41:59.579Z,88.50
2022-09-03T06:44:31.628Z,86.60
2022-09-03T06:47:03.075Z,86.40
2022-09-03T06:49:40.487Z,86.20
2022-09-03T06:52:16.127Z,86.10
2022-09-03T06:54:45.422Z,85.20
2022-09-03T06:57:15.033Z,84.60
2022-09-03T06:59:49.730Z,84.40
2022-09-03T07:02:36.442Z,84.60
2022-09-03T07:05:14.693Z,83.70
2022-09-03T07:07:45.195Z,83.50
2022-09-03T07:10:21.026Z,83.10
2022-09-03T07:12:57.211Z,82.80
2022-09-03T07:15:44.151Z,82.10
2022-09-03T07:18:36.868Z,81.10
2022-09-03T07:21:30.498Z,81.10
2022-09-03T07:24:07.657Z,80.70
2022-09-03T07:26:58.306Z,80.40
2022-09-03T07:29:29.938Z,80.20
2022-09-03T07:32:05.472Z,80.00
2022-09-03T07:34:35.875Z,79.20
2022-09-03T07:37:15.904Z,78.90
2022-09-03T07:39:45.181Z,79.20
2022-09-03T07:42:31.243Z,77.80
2022-09-03T07:45:01.178Z,76.00
2022-09-03T07:47:34.672Z,75.90
2022-09-03T07:50:34.476Z,75.90
2022-09-03T07:53:05.421Z,74.30
2022-09-03T07:55:40.480Z,74.70
2022-09-03T07:58:08.575Z,74.40
2022-09-03T08:00:38.788Z,74.90
2022-09-03T08:03:08.868Z,74.60
2022-09-03T08:05:38.227Z,74.40
2022-09-03T08:08:07.850Z,73.80
2022-09-03T08:10:38.442Z,74.10
2022-09-03T08:13:07.998Z,73.90
2022-09-03T08:15:40.415Z,73.00
2022-09-03T08:18:08.528Z,73.00
2022-09-03T08:20:39.587Z,72.60
2022-09-03T08:23:07.687Z,72.50
2022-09-03T08:25:35.863Z,72.20
2022-09-03T08:28:04.229Z,72.40
2022-09-03T08:30:32.423Z,72.00
2022-09-03T08:33:04.924Z,71.10
2022-09-03T08:35:34.729Z,70.80
2022-09-03T08:38:05.827Z,69.70
2022-09-03T08:40:38.776Z,69.10
2022-09-03T08:43:17.427Z,70.10
2022-09-03T08:45:46.792Z,69.30
2022-09-03T08:48:25.689Z,68.70
2022-09-03T08:51:00.025Z,68.70
2022-09-03T08:53:40.865Z,69.70
2022-09-03T08:56:11.779Z,68.00
2022-09-03T08:58:43.948Z,67.90
2022-09-03T09:01:17.741Z,66.80
2022-09-03T09:03:56.662Z,66.50
2022-09-03T09:06:35.442Z,67.00
2022-09-03T09:09:13.790Z,65.70
2022-09-03T09:11:51.869Z,65.10
2022-09-03T09:14:27.418Z,64.90
2022-09-03T09:17:02.769Z,63.80
2022-09-03T09:19:42.408Z,64.90
2022-09-03T09:22:18.206Z,63.20
2022-09-03T09:24:49.411Z,64.20
2022-09-03T09:27:18.797Z,62.30
2022-09-03T09:29:51.539Z,61.10
2022-09-03T09:32:22.620Z,61.70
2022-09-03T09:34:53.356Z,60.70
2022-09-03T09:37:22.099Z,58.70
2022-09-03T09:39:58.899Z,58.80
2022-09-03T09:42:31.192Z,58.90
2022-09-03T09:45:10.697Z,58.70
2022-09-03T09:47:40.991Z,58.20
2022-09-03T09:50:26.096Z,57.60
2022-09-03T09:53:14.313Z,58.80
2022-09-03T09:56:00.674Z,58.80
2022-09-03T09:58:32.023Z,57.80
2022-09-03T10:01:13.213Z,57.70
2022-09-03T10:03:55.353Z,56.50
2022-09-03T10:06:45.867Z,57.10
2022-09-03T10:09:16.011Z,55.70
2022-09-03T10:11:50.942Z,55.00
2022-09-03T10:14:35.172Z,55.70
2022-09-03T10:17:12.404Z,54.80
2022-09-03T10:20:09.844Z,54.80
2022-09-03T10:22:56.833Z,55.10
2022-09-03T10:25:28.420Z,54.30
2022-09-03T10:28:00.489Z,54.40
2022-09-03T10:30:47.881Z,53.50
2022-09-03T10:33:23.867Z,53.30
2022-09-03T10:35:58.899Z,52.20
2022-09-03T10:38:33.041Z,52.00
2022-09-03T10:41:14.507Z,51.60
2022-09-03T10:43:59.350Z,52.20
2022-09-03T10:46:39.116Z,51.40
2022-09-03T10:49:41.912Z,52.30
2022-09-03T10:52:16.662Z,51.90
2022-09-03T10:54:59.290Z,50.20
2022-09-03T10:57:41.412Z,51.20
2022-09-03T11:00:13.010Z,52.00
2022-09-03T11:03:08.601Z,50.80
2022-09-03T11:05:42.828Z,50.80
2022-09-03T11:08:18.332Z,50.20
2022-09-03T11:10:53.980Z,50.50
2022-09-03T11:13:27.894Z,49.60
2022-09-03T11:16:01.254Z,49.40
2022-09-03T11:18:38.879Z,50.10
2022-09-03T11:21:15.147Z,49.60
2022-09-03T11:23:48.120Z,49.60
2022-09-03T11:26:21.937Z,49.30
2022-09-03T11:28:58.772Z,48.60
2022-09-03T11:31:37.451Z,48.00
2022-09-03T11:34:09.419Z,48.40
2022-09-03T11:36:41.794Z,48.30
2022-09-03T11:39:20.932Z,46.80
2022-09-03T11:42:02.214Z,46.60
2022-09-03T11:44:44.327Z,47.50
2022-09-03T11:47:24.504Z,46.50
2022-09-03T11:49:54.977Z,46.20
2022-09-03T11:52:32.316Z,46.20
2022-09-03T11:55:01.569Z,46.90
2022-09-03T11:57:34.191Z,45.10
2022-09-03T12:00:12.863Z,45.70
2022-09-03T12:02:46.722Z,46.20
2022-09-03T12:05:26.821Z,45.60
2022-09-03T12:08:25.230Z,44.50
2022-09-03T12:10:59.189Z,44.80
2022-09-03T12:13:47.468Z,44.20
2022-09-03T12:16:43.122Z,44.30
2022-09-03T12:19:18.575Z,45.30
2022-09-03T12:21:50.500Z,43.90
2022-09-03T12:24:20.276Z,43.70
2022-09-03T12:26:48.493Z,44.10
2022-09-03T12:29:27.716Z,44.30
2022-09-03T12:31:57.530Z,43.70
2022-09-03T12:34:33.722Z,44.00
2022-09-03T12:37:02.942Z,42.70
2022-09-03T12:42:32.451Z,42.80
2022-09-03T12:45:10.628Z,43.40
2022-09-03T12:47:41.321Z,42.20
2022-09-03T12:50:11.693Z,42.30
2022-09-03T12:52:43.895Z,42.50
2022-09-03T12:55:27.867Z,41.60
2022-09-03T12:58:02.886Z,42.30
2022-09-03T13:00:34.777Z,42.20
2022-09-03T13:03:06.858Z,41.60
2022-09-03T13:05:44.791Z,41.60
2022-09-03T13:08:20.393Z,42.10
2022-09-03T13:10:54.893Z,41.20
2022-09-03T13:13:26.764Z,41.90
2022-09-03T13:16:13.755Z,40.40
2022-09-03T13:18:49.174Z,41.10
2022-09-03T13:21:30.773Z,40.30
2022-09-03T13:24:20.973Z,41.70
2022-09-03T13:27:06.173Z,41.60
2022-09-03T13:29:57.734Z,40.70
2022-09-03T13:32:40.054Z,40.30
2022-09-03T13:35:13.582Z,41.20
2022-09-03T13:37:49.285Z,41.00
2022-09-03T13:40:26.415Z,40.10
2022-09-03T13:43:02.788Z,39.80
2022-09-03T13:45:38.275Z,40.70
2022-09-03T13:48:34.133Z,41.40
2022-09-03T13:51:10.616Z,41.40
2022-09-03T13:53:50.614Z,41.50
2022-09-03T13:56:27.781Z,40.90
2022-09-03T13:59:03.223Z,41.30
2022-09-03T14:01:55.061Z,41.40
2022-09-03T14:04:36.290Z,41.70
2022-09-03T14:07:10.832Z,41.30
2022-09-03T14:09:49.234Z,42.50
2022-09-03T14:12:23.972Z,41.10
2022-09-03T14:14:58.000Z,41.50
2022-09-03T14:17:37.286Z,41.70
2022-09-03T14:20:14.391Z,42.20
2022-09-03T14:22:52.100Z,42.20
2022-09-03T14:25:22.072Z,42.70
2022-09-03T14:27:50.691Z,42.20
2022-09-03T14:30:31.697Z,42.60
2022-09-03T14:33:11.176Z,43.60
2022-09-03T14:35:58.555Z,42.00
2022-09-03T14:39:13.757Z,42.90
2022-09-03T14:41:58.279Z,43.80
2022-09-03T14:44:51.541Z,42.40
2022-09-03T14:47:40.736Z,41.30
2022-09-03T14:50:23.708Z,41.00
2022-09-03T14:53:16.213Z,41.00
2022-09-03T14:56:18.896Z,41.40
2022-09-03T14:59:08.233Z,42.80
2022-09-03T15:01:39.282Z,42.80
2022-09-03T15:04:47.221Z,44.30
2022-09-03T15:07:28.789Z,43.10
2022-09-03T15:10:07.934Z,42.10
2022-09-03T15:12:44.219Z,43.90
2022-09-03T15:15:19.685Z,40.70
2022-09-03T15:18:01.343Z,41.80
2022-09-03T15:20:43.468Z,42.60
2022-09-03T15:23:33.892Z,42.40
2022-09-03T15:26:40.495Z,43.00
2022-09-03T15:29:37.098Z,41.80
2022-09-03T15:32:19.939Z,42.10
2022-09-03T15:35:05.321Z,41.70
2022-09-03T15:37:45.656Z,41.90
2022-09-03T15:40:26.794Z,42.50
2022-09-03T15:43:08.514Z,42.20
2022-09-03T15:45:42.007Z,42.50
2022-09-03T15:48:21.591Z,43.50
2022-09-03T15:50:54.216Z,44.00
2022-09-03T15:53:34.121Z,43.10
2022-09-03T15:56:21.082Z,43.90
2022-09-03T15:58:57.591Z,43.70
2022-09-03T16:01:35.779Z,44.80
2022-09-03T16:04:13.334Z,44.20
2022-09-03T16:06:52.188Z,44.30
2022-09-03T16:09:28.998Z,44.60
2022-09-03T16:12:07.682Z,43.10
2022-09-03T16:14:42.678Z,44.00
2022-09-03T16:17:22.317Z,43.50
2022-09-03T16:19:58.443Z,42.50
2022-09-03T16:22:30.117Z,42.70
2022-09-03T16:25:02.761Z,43.40
2022-09-03T16:27:35.783Z,43.20
2022-09-03T16:30:11.737Z,43.60
2022-09-03T16:33:00.276Z,44.20
2022-09-03T16:35:40.950Z,44.90
2022-09-03T16:38:28.769Z,45.20
2022-09-03T16:41:02.045Z,45.10
2022-09-03T16:43:41.186Z,44.90
2022-09-03T16:46:23.332Z,45.40
2022-09-03T16:49:06.209Z,45.40
2022-09-03T16:51:40.639Z,44.80
2022-09-03T16:54:27.153Z,44.60
2022-09-03T16:57:08.374Z,45.50
2022-09-03T17:00:03.794Z,45.10
2022-09-03T17:02:54.092Z,44.70
2022-09-03T17:05:39.271Z,45.10
2022-09-03T17:08:16.920Z,45.70
2022-09-03T17:10:56.061Z,46.10
2022-09-03T17:13:45.615Z,46.40
2022-09-03T17:16:47.713Z,48.00
2022-09-03T17:19:41.102Z,47.20
2022-09-03T17:22:35.528Z,47.00
2022-09-03T17:25:31.706Z,46.60
2022-09-03T17:28:24.156Z,48.00
2022-09-03T17:31:16.203Z,47.40
2022-09-03T17:34:01.508Z,49.80
2022-09-03T17:36:34.030Z,49.70
2022-09-03T17:39:49.608Z,51.90
2022-09-03T17:42:42.916Z,52.90
2022-09-03T17:45:37.978Z,51.00
2022-09-03T17:48:40.788Z,51.30
2022-09-03T17:51:16.806Z,52.00
2022-09-03T17:53:56.860Z,53.10
2022-09-03T17:56:49.242Z,53.90
2022-09-03T17:59:36.360Z,55.60
2022-09-03T18:02:30.695Z,57.00
2022-09-03T18:05:08.670Z,58.40
2022-09-03T18:07:49.109Z,61.90
2022-09-03T18:10:33.755Z,63.60
2022-09-03T18:13:13.646Z,64.90
2022-09-03T18:15:54.467Z,65.80
2022-09-03T18:18:32.712Z,66.20
2022-09-03T18:21:40.747Z,66.20
2022-09-03T18:24:46.743Z,67.20
2022-09-03T18:27:47.804Z,68.30
2022-09-03T18:30:54.591Z,69.00
2022-09-03T18:33:43.640Z,69.50
2022-09-03T18:36:32.747Z,71.30
2022-09-03T18:39:33.538Z,72.60
2022-09-03T18:42:37.722Z,73.80
2022-09-03T18:45:55.103Z,75.70
2022-09-03T18:48:55.048Z,77.10
2022-09-03T18:51:52.735Z,79.00
2022-09-03T18:55:07.754Z,80.70
2022-09-03T18:58:10.681Z,81.30
2022-09-03T19:01:05.801Z,81.90
2022-09-03T19:04:17.400Z,82.70
2022-09-03T19:07:20.534Z,83.60
2022-09-03T19:10:14.580Z,82.90
2022-09-03T19:13:15.924Z,84.40
2022-09-03T19:16:15.153Z,85.00
2022-09-03T19:19:20.068Z,86.70
2022-09-03T19:22:25.796Z,87.20
2022-09-03T19:25:35.414Z,87.30
2022-09-03T19:28:48.599Z,85.90
2022-09-03T19:32:02.143Z,87.00
2022-09-03T19:35:23.841Z,87.70
2022-09-03T19:38:31.456Z,86.90
2022-09-03T19:41:28.183Z,87.10
2022-09-03T19:44:31.523Z,87.50
2022-09-03T19:47:23.368Z,88.00
2022-09-03T19:50:31.592Z,88.70
2022-09-03T19:53:22.190Z,89.60
2022-09-03T19:56:24.294Z,90.30
2022-09-03T19:59:19.449Z,90.30
2022-09-03T20:02:06.909Z,90.60
2022-09-03T20:05:10.323Z,90.80
2022-09-03T20:08:05.923Z,91.30
2022-09-03T20:10:37.078Z,91.50
2022-09-03T20:13:09.461Z,91.80
2022-09-03T20:15:51.883Z,91.90
2022-09-03T20:18:39.609Z,92.20
2022-09-03T20:21:28.798Z,92.50
2022-09-03T20:24:21.583Z,92.70
2022-09-03T20:27:00.215Z,92.80
2022-09-03T20:29:54.766Z,93.10
2022-09-03T20:32:59.298Z,93.20
2022-09-03T20:36:00.651Z,93.60
2022-09-03T20:39:08.150Z,93.90
2022-09-03T20:42:00.549Z,94.10
2022-09-03T20:44:53.955Z,94.20
2022-09-03T20:47:45.919Z,94.50
2022-09-03T20:50:26.035Z,94.60
2022-09-03T20:53:21.207Z,94.70
2022-09-03T20:56:14.912Z,95.10
2022-09-03T20:58:53.564Z,95.00
2022-09-03T21:01:32.081Z,95.40
2022-09-03T21:04:11.779Z,95.80
2022-09-03T21:07:15.885Z,96.00
2022-09-03T21:09:53.195Z,96.30
2022-09-03T21:12:52.894Z,96.70
2022-09-03T21:15:30.031Z,97.00
2022-09-03T21:18:07.974Z,97.50
2022-09-03T21:21:00.810Z,97.60
2022-09-03T21:23:34.978Z,97.80
2022-09-03T21:26:14.704Z,97.90
2022-09-03T21:28:51.493Z,98.10
2022-09-03T21:32:04.233Z,98.30
2022-09-03T21:34:38.437Z,98.30
2022-09-03T21:41:04.058Z,98.60
2022-09-03T21:43:43.914Z,99.10
2022-09-03T21:46:37.394Z,99.10
2022-09-03T21:49:16.136Z,99.30
2022-09-03T21:51:54.265Z,99.30
2022-09-03T21:54:30.154Z,99.60
2022-09-03T21:57:14.252Z,99.90
2022-09-03T22:00:11.455Z,99.90
2022-09-03T22:02:43.374Z,99.90
2022-09-03T22:05:34.380Z,99.90
2022-09-03T22:08:17.744Z,99.90
2022-09-03T22:10:56.987Z,99.90
2022-09-03T22:13:31.289Z,99.90
2022-09-03T22:16:18.856Z,99.90
2022-09-03T22:18:52.172Z,99.90
2022-09-03T22:21:34.070Z,99.90
2022-09-03T22:24:19.055Z,99.90
2022-09-03T22:26:55.289Z,99.90
2022-09-03T22:29:40.197Z,99.90
2022-09-03T22:32:29.017Z,99.90
2022-09-03T22:35:12.605Z,99.90
2022-09-03T22:38:00.177Z,99.90
2022-09-03T22:40:52.142Z,99.90
2022-09-03T22:43:36.520Z,99.90
2022-09-03T22:46:24.727Z,99.90
2022-09-03T22:49:40.897Z,99.90
2022-09-03T22:52:28.983Z,99.90
2022-09-03T22:55:12.936Z,99.90
2022-09-03T22:57:49.072Z,99.90
2022-09-03T23:00:25.101Z,99.90
2022-09-03T23:03:06.011Z,99.90
2022-09-03T23:06:14.201Z,99.90
2022-09-03T23:09:04.123Z,99.90
2022-09-03T23:11:46.421Z,99.90
2022-09-03T23:15:29.715Z,99.90
2022-09-03T23:18:09.017Z,99.90
2022-09-03T23:20:56.521Z,99.90
2022-09-03T23:23:30.935Z,99.90
2022-09-03T23:26:54.503Z,99.90
2022-09-03T23:29:35.992Z,99.90
2022-09-03T23:32:21.673Z,99.90
2022-09-03T23:35:00.388Z,99.90
2022-09-03T23:37:47.542Z,99.90
2022-09-03T23:40:32.584Z,99.90
2022-09-03T23:43:40.501Z,99.90
2022-09-03T23:46:17.957Z,99.90
2022-09-03T23:49:16.392Z,99.90
2022-09-03T23:52:06.867Z,99.90
2022-09-03T23:54:49.749Z,99.90
2022-09-03T23:57:48.728Z,99.90
